KORD/ORD METAR and TAF weather

Enter ICAO airport designator
Station Type Date Time Source
KORD METAR 2021/03/06 03:51 UTC NOAA

KORD 060351Z 00000KT 10SM FEW075 01/M06 A3034 RMK AO2 SLP278 T00111056


Station Type Date Time Source
KORD Decoded METAR 2021/03/06 03:51 UTC NOAA

CHICAGO O'HARE INTERNATIONAL, IL, United States (KORD) 41-59N 087-55W 200M
Mar 05, 2021 - 10:51 PM EST / 2021.03.06 0351 UTC
Wind: Calm:0
Visibility: 10 mile(s):0
Sky conditions: mostly clear
Temperature: 34.0 F (1.1 C)
Dew Point: 21.9 F (-5.6 C)
Relative Humidity: 60%
Pressure (altimeter): 30.34 in. Hg (1027 hPa)
ob: KORD 060351Z 00000KT 10SM FEW075 01/M06 A3034 RMK AO2 SLP278 T00111056
cycle: 4

Station Type Date Time Source
KORD TAF 2021/03/06 03:03 UTC NOAA

TAF
AMD KORD 060301Z 0603/0706 VRB04KT P6SM SCT080
FM061000 02005KT P6SM SCT015 SCT200
FM061800 04008KT P6SM SKC
FM070100 10005KT P6SM SKC

Example: see airport list